Time;durP1;ratioP1;P1;durP2;ratioP2;P2;SDS_P1;SDS_P2;PMS_P1;PMS_P2;Temp;Humidity;BMP_temperature;BMP_pressure;BME280_temperature;BME280_humidity;BME280_pressure;Samples;Min_cycle;Max_cycle;Signal;HPM_P1;HPM_P2
2021/10/12 00:01:22;;;;;;;;;;;22.10;50.70;;;;;;495254;240;1178;-47
2021/10/12 00:03:24;;;;;;;;;;;22.10;50.80;;;;;;495181;240;1180;-47
2021/10/12 00:05:25;;;;;;;;;;;22.10;50.80;;;;;;495228;241;1260;-46
2021/10/12 00:07:26;;;;;;;;;;;22.10;50.80;;;;;;495556;240;1235;-47
2021/10/12 00:09:28;;;;;;;;;;;22.10;50.90;;;;;;495413;240;1104;-47
2021/10/12 00:11:29;;;;;;;;;;;22.10;50.80;;;;;;495215;240;1210;-47
2021/10/12 00:13:30;;;;;;;;;;;22.10;50.80;;;;;;495203;240;1204;-47
2021/10/12 00:15:32;;;;;;;;;;;22.10;50.80;;;;;;495273;240;2119;-47
2021/10/12 00:17:33;;;;;;;;;;;22.00;50.80;;;;;;495100;241;1217;-47
2021/10/12 00:19:34;;;;;;;;;;;22.10;50.70;;;;;;495203;241;1040;-47
2021/10/12 00:21:36;;;;;;;;;;;22.10;50.80;;;;;;495202;241;1227;-47
2021/10/12 00:23:37;;;;;;;;;;;22.10;50.70;;;;;;495471;240;1077;-47
2021/10/12 00:25:39;;;;;;;;;;;22.10;50.80;;;;;;495677;240;1208;-47
2021/10/12 00:27:40;;;;;;;;;;;22.10;50.80;;;;;;495371;240;1260;-46
2021/10/12 00:29:41;;;;;;;;;;;22.10;50.90;;;;;;495392;240;1191;-47
2021/10/12 00:31:42;;;;;;;;;;;22.00;50.90;;;;;;495268;240;1267;-46
2021/10/12 00:33:44;;;;;;;;;;;22.00;50.90;;;;;;495210;241;2118;-47
2021/10/12 00:35:45;;;;;;;;;;;22.00;50.90;;;;;;495222;240;1300;-47
2021/10/12 00:37:46;;;;;;;;;;;22.10;50.80;;;;;;495216;241;1194;-46
2021/10/12 00:39:47;;;;;;;;;;;22.10;50.80;;;;;;495254;241;1055;-47
2021/10/12 00:41:49;;;;;;;;;;;22.00;50.80;;;;;;495171;241;1410;-46
2021/10/12 00:43:50;;;;;;;;;;;22.10;50.80;;;;;;495171;241;1011;-47
2021/10/12 00:45:51;;;;;;;;;;;22.00;50.80;;;;;;495249;240;1489;-47
2021/10/12 00:47:53;;;;;;;;;;;22.10;50.90;;;;;;495417;240;1229;-46
2021/10/12 00:49:54;;;;;;;;;;;22.10;50.90;;;;;;495391;240;1062;-47
2021/10/12 00:51:55;;;;;;;;;;;22.10;50.90;;;;;;495438;240;1198;-47
2021/10/12 00:53:57;;;;;;;;;;;22.10;50.90;;;;;;495188;241;2178;-46
2021/10/12 00:55:58;;;;;;;;;;;22.10;50.80;;;;;;495627;240;1242;-47
2021/10/12 00:57:59;;;;;;;;;;;22.10;50.80;;;;;;495285;240;1202;-47
2021/10/12 01:00:01;;;;;;;;;;;22.10;50.90;;;;;;495502;240;1162;-46
2021/10/12 01:02:02;;;;;;;;;;;22.00;50.90;;;;;;495216;240;1165;-46
2021/10/12 01:04:03;;;;;;;;;;;22.10;50.90;;;;;;495176;241;1054;-47
2021/10/12 01:06:05;;;;;;;;;;;22.00;50.90;;;;;;495161;241;1172;-47
2021/10/12 01:08:06;;;;;;;;;;;22.00;50.90;;;;;;495190;241;1045;-47
2021/10/12 01:10:07;;;;;;;;;;;22.00;50.80;;;;;;495578;240;1048;-46
2021/10/12 01:12:09;;;;;;;;;;;22.00;50.90;;;;;;495259;240;1203;-47
2021/10/12 01:14:10;;;;;;;;;;;22.10;50.90;;;;;;495365;240;2194;-46
2021/10/12 01:16:11;;;;;;;;;;;22.00;50.80;;;;;;495197;240;1169;-47
2021/10/12 01:18:13;;;;;;;;;;;22.00;50.80;;;;;;495251;241;1049;-46
2021/10/12 01:20:15;;;;;;;;;;;22.00;50.80;;;;;;495615;240;1007;-47
2021/10/12 01:22:16;;;;;;;;;;;22.00;50.80;;;;;;495181;241;1937;-47
2021/10/12 01:24:17;;;;;;;;;;;22.00;50.80;;;;;;495261;241;1069;-47
2021/10/12 01:26:18;;;;;;;;;;;22.00;50.80;;;;;;495646;240;1159;-47
2021/10/12 01:28:19;;;;;;;;;;;22.00;50.90;;;;;;495542;240;1073;-46
2021/10/12 01:30:21;;;;;;;;;;;22.00;50.90;;;;;;495240;241;1125;-46
2021/10/12 01:32:22;;;;;;;;;;;22.00;50.90;;;;;;495295;240;1251;-47
2021/10/12 01:34:23;;;;;;;;;;;22.00;51.00;;;;;;495349;240;2190;-47
2021/10/12 01:36:25;;;;;;;;;;;22.00;50.90;;;;;;495187;241;1143;-46
2021/10/12 01:38:26;;;;;;;;;;;22.00;50.90;;;;;;495542;240;1057;-47
2021/10/12 01:40:27;;;;;;;;;;;22.00;50.90;;;;;;495467;240;1225;-47
2021/10/12 01:42:29;;;;;;;;;;;22.00;50.90;;;;;;495355;240;1185;-47
2021/10/12 01:44:30;;;;;;;;;;;22.00;50.80;;;;;;495258;241;1255;-47
2021/10/12 01:46:31;;;;;;;;;;;22.00;50.90;;;;;;495316;240;1177;-47
2021/10/12 01:48:33;;;;;;;;;;;22.00;51.00;;;;;;495653;240;1150;-47
2021/10/12 01:50:34;;;;;;;;;;;22.00;51.00;;;;;;495215;241;1181;-47
2021/10/12 01:52:35;;;;;;;;;;;22.00;50.90;;;;;;495155;241;1210;-47
2021/10/12 01:54:36;;;;;;;;;;;22.00;50.90;;;;;;495286;240;2174;-47
2021/10/12 01:56:38;;;;;;;;;;;22.00;51.00;;;;;;495143;241;1106;-47
2021/10/12 01:58:39;;;;;;;;;;;22.00;50.90;;;;;;495532;240;1165;-47
2021/10/12 02:00:40;;;;;;;;;;;22.00;50.80;;;;;;495185;240;1149;-47
2021/10/12 02:02:42;;;;;;;;;;;22.00;50.90;;;;;;495272;240;1301;-47
2021/10/12 02:04:43;;;;;;;;;;;22.00;50.90;;;;;;495313;240;1170;-47
2021/10/12 02:06:44;;;;;;;;;;;22.00;50.90;;;;;;495461;240;1186;-47
2021/10/12 02:08:46;;;;;;;;;;;22.00;50.90;;;;;;495249;241;1072;-47
2021/10/12 02:10:47;;;;;;;;;;;22.00;50.80;;;;;;495247;241;1184;-47
2021/10/12 02:12:48;;;;;;;;;;;22.10;50.80;;;;;;495315;240;990;-47
2021/10/12 02:14:50;;;;;;;;;;;22.00;50.80;;;;;;495228;240;2135;-47
2021/10/12 02:16:51;;;;;;;;;;;22.00;50.80;;;;;;495174;241;1265;-47
2021/10/12 02:18:52;;;;;;;;;;;22.00;50.90;;;;;;495736;240;1071;-47
2021/10/12 02:20:54;;;;;;;;;;;22.00;50.80;;;;;;495447;240;1166;-47
2021/10/12 02:22:55;;;;;;;;;;;22.00;50.80;;;;;;495236;241;1212;-47
2021/10/12 02:24:56;;;;;;;;;;;22.00;50.90;;;;;;495427;240;1032;-47
2021/10/12 02:26:58;;;;;;;;;;;22.00;50.90;;;;;;495221;240;1329;-47
2021/10/12 02:28:59;;;;;;;;;;;22.00;50.90;;;;;;495635;240;982;-46
2021/10/12 02:31:00;;;;;;;;;;;22.00;50.90;;;;;;495420;240;1224;-47
2021/10/12 02:33:01;;;;;;;;;;;22.00;51.00;;;;;;495156;241;1118;-46
2021/10/12 02:35:03;;;;;;;;;;;22.00;51.00;;;;;;495218;241;2186;-47
2021/10/12 02:37:04;;;;;;;;;;;21.90;50.90;;;;;;495231;240;1252;-47
2021/10/12 02:39:05;;;;;;;;;;;22.00;50.90;;;;;;495272;240;1072;-47
2021/10/12 02:41:07;;;;;;;;;;;21.90;50.90;;;;;;495133;236;1201;-47
2021/10/12 02:43:08;;;;;;;;;;;21.90;50.90;;;;;;495492;240;1195;-47
2021/10/12 02:45:09;;;;;;;;;;;22.00;51.00;;;;;;495330;240;1232;-47
2021/10/12 02:47:11;;;;;;;;;;;22.00;50.90;;;;;;495116;241;1237;-47
2021/10/12 02:49:12;;;;;;;;;;;21.90;50.90;;;;;;495589;240;1017;-47
2021/10/12 02:51:13;;;;;;;;;;;21.90;50.90;;;;;;495137;240;1345;-46
2021/10/12 02:53:15;;;;;;;;;;;21.90;51.00;;;;;;495339;240;1165;-47
2021/10/12 02:55:16;;;;;;;;;;;21.90;51.00;;;;;;495306;241;2190;-47
2021/10/12 02:57:17;;;;;;;;;;;21.90;50.90;;;;;;495351;240;1209;-47
2021/10/12 02:59:19;;;;;;;;;;;22.00;51.00;;;;;;495527;240;1224;-47
2021/10/12 03:01:20;;;;;;;;;;;21.90;51.00;;;;;;495505;236;1250;-47
2021/10/12 03:03:21;;;;;;;;;;;22.00;50.90;;;;;;495247;241;1063;-47
2021/10/12 03:05:23;;;;;;;;;;;22.00;50.90;;;;;;495235;241;1006;-46
2021/10/12 03:07:24;;;;;;;;;;;21.90;50.90;;;;;;495568;240;1110;-46
2021/10/12 03:09:25;;;;;;;;;;;21.90;50.90;;;;;;495456;240;1058;-46
2021/10/12 03:11:27;;;;;;;;;;;21.90;50.90;;;;;;495557;240;1319;-47
2021/10/12 03:13:28;;;;;;;;;;;21.90;50.90;;;;;;495375;240;1019;-47
2021/10/12 03:15:29;;;;;;;;;;;21.90;50.90;;;;;;495498;240;2135;-47
2021/10/12 03:17:31;;;;;;;;;;;21.90;50.90;;;;;;495247;240;1203;-47
2021/10/12 03:19:32;;;;;;;;;;;22.00;50.90;;;;;;495246;241;996;-46
2021/10/12 03:21:35;;;;;;;;;;;21.90;50.90;;;;;;495400;240;1249;-47
2021/10/12 03:23:35;;;;;;;;;;;22.00;50.90;;;;;;495345;240;1400;-47
2021/10/12 03:25:36;;;;;;;;;;;22.00;51.00;;;;;;495633;240;1114;-46
2021/10/12 03:27:37;;;;;;;;;;;21.90;50.80;;;;;;495141;240;1152;-47
2021/10/12 03:29:38;;;;;;;;;;;22.00;50.90;;;;;;495179;241;1068;-47
2021/10/12 03:31:40;;;;;;;;;;;21.90;50.90;;;;;;495134;240;1463;-47
2021/10/12 03:33:41;;;;;;;;;;;21.90;50.90;;;;;;495197;241;1220;-47
2021/10/12 03:35:46;;;;;;;;;;;21.90;51.00;;;;;;495240;241;2139;-47
2021/10/12 03:37:45;;;;;;;;;;;21.90;50.90;;;;;;495231;240;1698;-47
2021/10/12 03:39:46;;;;;;;;;;;22.00;50.90;;;;;;495457;240;1064;-47
2021/10/12 03:41:47;;;;;;;;;;;22.00;50.90;;;;;;495178;240;1408;-47
2021/10/12 03:43:49;;;;;;;;;;;21.90;50.90;;;;;;495267;240;1290;-47
2021/10/12 03:45:50;;;;;;;;;;;21.90;50.90;;;;;;495538;240;1185;-47
2021/10/12 03:47:52;;;;;;;;;;;21.90;50.90;;;;;;495233;240;1210;-47
2021/10/12 03:49:53;;;;;;;;;;;21.90;50.80;;;;;;495443;240;1017;-47
2021/10/12 03:51:54;;;;;;;;;;;21.90;50.80;;;;;;495311;240;1323;-47
2021/10/12 03:53:55;;;;;;;;;;;22.00;50.90;;;;;;495525;240;1235;-47
2021/10/12 03:55:57;;;;;;;;;;;21.90;50.90;;;;;;495256;240;2108;-47
2021/10/12 03:57:58;;;;;;;;;;;21.90;51.00;;;;;;495243;240;1239;-47
2021/10/12 03:59:59;;;;;;;;;;;21.90;50.90;;;;;;495687;240;1061;-46
2021/10/12 04:02:01;;;;;;;;;;;21.90;51.00;;;;;;495388;240;1160;-46
2021/10/12 04:04:02;;;;;;;;;;;21.90;50.90;;;;;;495234;241;1082;-46
2021/10/12 04:06:03;;;;;;;;;;;21.90;50.90;;;;;;495182;241;1444;-47
2021/10/12 04:08:05;;;;;;;;;;;21.90;50.90;;;;;;495259;240;1285;-47
2021/10/12 04:10:06;;;;;;;;;;;21.90;50.90;;;;;;495259;240;956;-47
2021/10/12 04:12:08;;;;;;;;;;;21.90;50.90;;;;;;495409;240;1173;-47
2021/10/12 04:14:09;;;;;;;;;;;21.90;50.90;;;;;;495567;240;1182;-47
2021/10/12 04:16:10;;;;;;;;;;;21.90;50.90;;;;;;495184;240;2186;-47
2021/10/12 04:18:12;;;;;;;;;;;21.90;50.80;;;;;;495340;240;1215;-47
2021/10/12 04:20:13;;;;;;;;;;;21.90;50.90;;;;;;495220;241;1061;-47
2021/10/12 04:22:14;;;;;;;;;;;21.90;50.90;;;;;;495315;240;1139;-46
2021/10/12 04:24:16;;;;;;;;;;;21.80;51.00;;;;;;495175;241;1050;-47
2021/10/12 04:26:19;;;;;;;;;;;21.90;51.00;;;;;;495108;241;1139;-47
2021/10/12 04:28:18;;;;;;;;;;;21.90;51.00;;;;;;495154;240;2189;-47
2021/10/12 04:30:20;;;;;;;;;;;21.90;50.90;;;;;;495686;240;1047;-47
2021/10/12 04:32:21;;;;;;;;;;;21.90;50.80;;;;;;495402;240;1217;-47
2021/10/12 04:34:22;;;;;;;;;;;21.90;50.90;;;;;;495387;240;1136;-47
2021/10/12 04:36:23;;;;;;;;;;;22.00;50.80;;;;;;495128;240;2127;-47
2021/10/12 04:38:25;;;;;;;;;;;21.90;50.90;;;;;;495464;240;1570;-47
2021/10/12 04:40:26;;;;;;;;;;;21.90;50.90;;;;;;494937;241;1227;-47
2021/10/12 04:42:27;;;;;;;;;;;21.90;50.80;;;;;;494925;240;1083;-46
2021/10/12 04:44:29;;;;;;;;;;;21.90;50.90;;;;;;495009;241;1121;-47
2021/10/12 04:46:30;;;;;;;;;;;21.90;50.90;;;;;;494960;241;1209;-47
2021/10/12 04:48:31;;;;;;;;;;;21.90;50.90;;;;;;495067;240;1210;-46
2021/10/12 04:50:33;;;;;;;;;;;21.90;50.80;;;;;;495188;240;1327;-47
2021/10/12 04:52:34;;;;;;;;;;;21.90;50.90;;;;;;494910;241;1228;-47
2021/10/12 04:54:35;;;;;;;;;;;21.90;50.90;;;;;;495078;240;1101;-47
2021/10/12 04:56:37;;;;;;;;;;;21.90;50.90;;;;;;495159;240;2190;-47
2021/10/12 04:58:38;;;;;;;;;;;21.90;50.90;;;;;;494945;240;1273;-47
2021/10/12 05:00:39;;;;;;;;;;;21.90;50.90;;;;;;494967;241;1125;-46
2021/10/12 05:02:41;;;;;;;;;;;21.90;51.00;;;;;;494936;240;1290;-47
2021/10/12 05:04:42;;;;;;;;;;;21.90;50.90;;;;;;494914;240;1035;-47
2021/10/12 05:06:43;;;;;;;;;;;21.90;50.90;;;;;;494923;240;1395;-47
2021/10/12 05:08:45;;;;;;;;;;;21.90;50.90;;;;;;494991;241;1081;-47
2021/10/12 05:10:46;;;;;;;;;;;21.90;50.90;;;;;;494948;241;1185;-47
2021/10/12 05:12:47;;;;;;;;;;;21.90;50.90;;;;;;494978;240;1301;-47
2021/10/12 05:14:49;;;;;;;;;;;21.90;50.90;;;;;;494932;240;1047;-47
2021/10/12 05:16:51;;;;;;;;;;;21.90;50.80;;;;;;494831;240;2115;-47
2021/10/12 05:18:55;;;;;;;;;;;21.90;50.90;;;;;;494680;240;2226;-47
2021/10/12 05:20:53;;;;;;;;;;;21.90;50.90;;;;;;494695;240;2281;-47
2021/10/12 05:22:54;;;;;;;;;;;21.90;50.90;;;;;;494934;241;1059;-47
2021/10/12 05:24:55;;;;;;;;;;;21.90;50.90;;;;;;494985;241;1056;-47
2021/10/12 05:26:57;;;;;;;;;;;21.90;50.80;;;;;;495022;240;1217;-46
2021/10/12 05:28:58;;;;;;;;;;;21.90;50.90;;;;;;495000;240;1058;-47
2021/10/12 05:30:59;;;;;;;;;;;21.90;50.90;;;;;;494859;241;1129;-46
2021/10/12 05:33:01;;;;;;;;;;;21.90;50.90;;;;;;494843;241;1282;-47
2021/10/12 05:35:02;;;;;;;;;;;21.90;50.90;;;;;;494999;240;1003;-47
2021/10/12 05:37:04;;;;;;;;;;;21.80;50.90;;;;;;494697;240;2190;-47
2021/10/12 05:39:05;;;;;;;;;;;21.90;50.90;;;;;;494900;240;1060;-47
2021/10/12 05:41:06;;;;;;;;;;;21.80;51.00;;;;;;494705;241;1158;-46
2021/10/12 05:43:08;;;;;;;;;;;21.90;51.00;;;;;;494856;240;1215;-47
2021/10/12 05:45:09;;;;;;;;;;;21.80;51.00;;;;;;494835;241;1067;-47
2021/10/12 05:47:10;;;;;;;;;;;21.80;51.00;;;;;;494747;240;1186;-47
2021/10/12 05:49:12;;;;;;;;;;;21.90;50.90;;;;;;494767;240;1207;-47
2021/10/12 05:51:17;;;;;;;;;;;21.80;50.90;;;;;;494701;240;1419;-47
2021/10/12 05:53:24;;;;;;;;;;;21.80;50.90;;;;;;494523;240;1919;-47
2021/10/12 05:55:27;;;;;;;;;;;21.80;51.00;;;;;;494622;240;1943;-47
2021/10/12 05:57:34;;;;;;;;;;;21.90;50.90;;;;;;494389;240;2228;-47
2021/10/12 05:59:26;;;;;;;;;;;21.90;50.90;;;;;;494453;240;1899;-47
2021/10/12 06:01:28;;;;;;;;;;;21.90;50.90;;;;;;494730;241;1162;-47
2021/10/12 06:03:29;;;;;;;;;;;21.90;50.80;;;;;;494639;241;1153;-47
2021/10/12 06:05:30;;;;;;;;;;;21.90;50.90;;;;;;494638;240;1199;-47
2021/10/12 06:07:31;;;;;;;;;;;21.80;50.90;;;;;;494584;240;1479;-47
2021/10/12 06:09:33;;;;;;;;;;;21.90;50.90;;;;;;494525;241;1044;-47
2021/10/12 06:11:34;;;;;;;;;;;21.90;50.80;;;;;;494398;241;1434;-47
2021/10/12 06:13:35;;;;;;;;;;;21.90;50.80;;;;;;494783;240;1618;-47
2021/10/12 06:15:37;;;;;;;;;;;21.90;50.90;;;;;;494747;240;1404;-47
2021/10/12 06:17:38;;;;;;;;;;;21.90;50.90;;;;;;494603;240;2202;-47
2021/10/12 06:19:39;;;;;;;;;;;21.90;50.80;;;;;;494666;240;1221;-47
2021/10/12 06:21:41;;;;;;;;;;;21.90;50.80;;;;;;494535;240;1238;-47
2021/10/12 06:23:42;;;;;;;;;;;21.90;50.80;;;;;;494670;240;1127;-47
2021/10/12 06:25:43;;;;;;;;;;;21.90;50.80;;;;;;494592;240;1365;-47
2021/10/12 06:27:45;;;;;;;;;;;21.90;50.80;;;;;;494552;240;1073;-47
2021/10/12 06:29:46;;;;;;;;;;;21.80;50.90;;;;;;494636;241;1030;-47
2021/10/12 06:31:48;;;;;;;;;;;21.90;50.90;;;;;;494517;240;1199;-47
2021/10/12 06:33:50;;;;;;;;;;;21.90;50.80;;;;;;494428;240;1282;-47
2021/10/12 06:35:50;;;;;;;;;;;21.90;50.80;;;;;;494307;240;2320;-47
2021/10/12 06:37:52;;;;;;;;;;;21.90;50.80;;;;;;494501;240;1252;-47
2021/10/12 06:39:53;;;;;;;;;;;21.90;50.80;;;;;;494575;241;1186;-47
2021/10/12 06:41:54;;;;;;;;;;;21.90;50.90;;;;;;494495;240;1280;-47
2021/10/12 06:43:56;;;;;;;;;;;21.80;51.00;;;;;;494473;241;1138;-47
2021/10/12 06:45:57;;;;;;;;;;;21.80;50.90;;;;;;494557;240;1320;-47
2021/10/12 06:47:58;;;;;;;;;;;21.80;50.90;;;;;;495289;240;1111;-47
2021/10/12 06:50:00;;;;;;;;;;;21.80;51.00;;;;;;494497;240;1188;-47
2021/10/12 06:52:01;;;;;;;;;;;21.90;51.00;;;;;;494423;240;1194;-47
2021/10/12 06:54:03;;;;;;;;;;;21.80;50.90;;;;;;494451;240;1100;-47
2021/10/12 06:56:04;;;;;;;;;;;21.80;50.90;;;;;;494465;240;2107;-47
2021/10/12 06:58:07;;;;;;;;;;;21.90;50.90;;;;;;494408;241;1198;-47
2021/10/12 07:00:07;;;;;;;;;;;21.80;50.90;;;;;;494695;240;2181;-47
2021/10/12 07:02:08;;;;;;;;;;;21.80;50.90;;;;;;494317;240;1343;-46
2021/10/12 07:04:09;;;;;;;;;;;21.80;50.90;;;;;;494133;241;1178;-46
2021/10/12 07:06:11;;;;;;;;;;;21.80;50.90;;;;;;494245;240;1057;-47
2021/10/12 07:08:12;;;;;;;;;;;21.80;51.00;;;;;;494196;241;1186;-47
2021/10/12 07:10:14;;;;;;;;;;;21.80;50.90;;;;;;494400;240;1097;-47
2021/10/12 07:12:15;;;;;;;;;;;21.90;50.90;;;;;;494330;240;1219;-47
2021/10/12 07:14:16;;;;;;;;;;;21.90;50.90;;;;;;494339;241;1088;-47
2021/10/12 07:16:21;;;;;;;;;;;21.80;50.90;;;;;;494413;240;2213;-47
2021/10/12 07:18:19;;;;;;;;;;;21.90;50.90;;;;;;494596;240;2049;-47
2021/10/12 07:20:20;;;;;;;;;;;21.90;50.90;;;;;;494445;241;1206;-47
2021/10/12 07:22:24;;;;;;;;;;;21.90;50.90;;;;;;494419;240;1202;-46
2021/10/12 07:24:24;;;;;;;;;;;21.80;50.90;;;;;;494171;240;2862;-47
2021/10/12 07:26:25;;;;;;;;;;;21.80;50.90;;;;;;494204;240;1211;-47
2021/10/12 07:28:26;;;;;;;;;;;21.90;50.90;;;;;;494546;241;1369;-47
2021/10/12 07:30:27;;;;;;;;;;;21.80;50.90;;;;;;495170;240;1070;-47
2021/10/12 07:32:29;;;;;;;;;;;21.90;50.90;;;;;;495092;240;1086;-47
2021/10/12 07:34:30;;;;;;;;;;;21.80;50.80;;;;;;494558;241;1372;-47
2021/10/12 07:36:31;;;;;;;;;;;21.80;50.80;;;;;;495067;240;2186;-47
2021/10/12 07:38:33;;;;;;;;;;;21.80;51.00;;;;;;494926;240;1160;-46
2021/10/12 07:40:35;;;;;;;;;;;21.80;50.90;;;;;;494260;240;1153;-47
2021/10/12 07:42:36;;;;;;;;;;;21.80;50.90;;;;;;494180;240;1393;-47
2021/10/12 07:44:37;;;;;;;;;;;21.80;50.90;;;;;;494491;240;1064;-47
2021/10/12 07:46:39;;;;;;;;;;;21.80;50.90;;;;;;494409;240;1193;-46
2021/10/12 07:48:40;;;;;;;;;;;21.90;50.80;;;;;;494377;240;1168;-47
2021/10/12 07:50:41;;;;;;;;;;;21.80;50.70;;;;;;494066;240;1203;-47
2021/10/12 07:52:44;;;;;;;;;;;21.80;50.80;;;;;;494203;240;1134;-47
2021/10/12 07:54:47;;;;;;;;;;;21.80;50.90;;;;;;494222;240;1119;-47
2021/10/12 07:56:48;;;;;;;;;;;21.80;50.90;;;;;;494191;240;2419;-47
2021/10/12 07:58:50;;;;;;;;;;;21.80;50.80;;;;;;494280;241;2302;-47
2021/10/12 08:00:50;;;;;;;;;;;21.80;50.90;;;;;;494239;240;2296;-47
2021/10/12 08:02:51;;;;;;;;;;;21.80;50.80;;;;;;494468;240;1215;-47
2021/10/12 08:04:52;;;;;;;;;;;21.80;50.90;;;;;;494169;241;1220;-47
2021/10/12 08:06:54;;;;;;;;;;;21.80;50.90;;;;;;494131;241;1263;-47
2021/10/12 08:08:55;;;;;;;;;;;21.80;50.80;;;;;;494301;241;1142;-47
2021/10/12 08:10:57;;;;;;;;;;;21.80;51.00;;;;;;494291;240;1083;-47
2021/10/12 08:13:02;;;;;;;;;;;21.80;51.00;;;;;;494050;241;1091;-47
2021/10/12 08:15:00;;;;;;;;;;;21.80;50.90;;;;;;493991;240;2181;-47
2021/10/12 08:17:01;;;;;;;;;;;21.80;50.90;;;;;;494335;240;2193;-47
2021/10/12 08:19:02;;;;;;;;;;;21.90;50.80;;;;;;494179;241;1116;-47
2021/10/12 08:21:03;;;;;;;;;;;21.90;50.80;;;;;;494103;240;1231;-47
2021/10/12 08:23:05;;;;;;;;;;;21.90;50.80;;;;;;494431;240;1176;-47
2021/10/12 08:25:08;;;;;;;;;;;21.80;50.80;;;;;;494430;240;2980;-47
2021/10/12 08:27:08;;;;;;;;;;;21.80;50.90;;;;;;495158;240;1827;-47
2021/10/12 08:29:10;;;;;;;;;;;21.80;50.80;;;;;;494644;240;1246;-47
2021/10/12 08:31:11;;;;;;;;;;;21.80;50.80;;;;;;494320;240;1346;-47
2021/10/12 08:33:12;;;;;;;;;;;21.90;50.80;;;;;;494201;240;1218;-47
2021/10/12 08:35:14;;;;;;;;;;;21.90;50.80;;;;;;494343;240;1174;-47
2021/10/12 08:37:15;;;;;;;;;;;21.90;50.80;;;;;;494383;240;2111;-47
2021/10/12 08:39:16;;;;;;;;;;;21.80;50.80;;;;;;494300;240;1097;-47
2021/10/12 08:41:17;;;;;;;;;;;21.80;50.80;;;;;;494188;241;1200;-47
2021/10/12 08:43:19;;;;;;;;;;;21.80;50.80;;;;;;494255;241;1100;-47
2021/10/12 08:45:21;;;;;;;;;;;21.80;50.80;;;;;;494314;238;1089;-47
2021/10/12 08:47:22;;;;;;;;;;;21.80;50.80;;;;;;494363;240;1284;-46
2021/10/12 08:49:23;;;;;;;;;;;21.80;50.80;;;;;;494452;240;1214;-47
2021/10/12 08:51:25;;;;;;;;;;;21.80;50.80;;;;;;494555;240;1444;-47
2021/10/12 08:53:29;;;;;;;;;;;21.80;50.90;;;;;;495126;240;1067;-47
2021/10/12 08:55:28;;;;;;;;;;;21.80;50.90;;;;;;494291;240;2504;-47
2021/10/12 08:57:30;;;;;;;;;;;21.80;50.80;;;;;;494941;240;2189;-47
2021/10/12 08:59:31;;;;;;;;;;;21.90;50.80;;;;;;494431;240;1255;-47
2021/10/12 09:01:34;;;;;;;;;;;21.90;50.80;;;;;;494432;241;1270;-47
2021/10/12 09:03:39;;;;;;;;;;;21.90;50.80;;;;;;495105;240;2376;-47
2021/10/12 09:05:35;;;;;;;;;;;21.90;50.80;;;;;;494167;240;3525;-47
2021/10/12 09:07:42;;;;;;;;;;;21.80;50.70;;;;;;495018;240;1032;-47
2021/10/12 09:09:38;;;;;;;;;;;21.80;50.80;;;;;;494952;240;2189;-47
2021/10/12 09:11:39;;;;;;;;;;;21.80;50.80;;;;;;494729;241;1056;-47
2021/10/12 09:13:41;;;;;;;;;;;21.80;50.80;;;;;;494367;240;1247;-46
2021/10/12 09:15:42;;;;;;;;;;;21.80;50.90;;;;;;494282;240;1179;-47
2021/10/12 09:17:46;;;;;;;;;;;21.80;50.90;;;;;;494333;240;2128;-47
2021/10/12 09:19:46;;;;;;;;;;;21.80;50.90;;;;;;494259;240;2480;-47
2021/10/12 09:21:46;;;;;;;;;;;21.80;50.90;;;;;;494234;240;2347;-47
2021/10/12 09:23:48;;;;;;;;;;;21.80;50.70;;;;;;494359;241;1208;-47
2021/10/12 09:25:49;;;;;;;;;;;21.80;50.80;;;;;;495151;240;1333;-47
2021/10/12 09:27:55;;;;;;;;;;;21.80;50.80;;;;;;494802;240;1071;-47
2021/10/12 09:29:54;;;;;;;;;;;21.80;50.80;;;;;;494447;240;2069;-46
2021/10/12 09:31:55;;;;;;;;;;;21.80;50.90;;;;;;494120;236;1127;-47
2021/10/12 09:33:57;;;;;;;;;;;21.80;50.80;;;;;;494143;240;1281;-47
2021/10/12 09:35:58;;;;;;;;;;;21.80;50.80;;;;;;494010;240;1300;-46
2021/10/12 09:37:59;;;;;;;;;;;21.80;50.80;;;;;;494160;240;2178;-47
2021/10/12 09:40:01;;;;;;;;;;;21.80;50.80;;;;;;494347;241;1151;-47
2021/10/12 09:42:02;;;;;;;;;;;21.80;50.80;;;;;;494478;241;1367;-46
2021/10/12 09:44:04;;;;;;;;;;;21.80;50.90;;;;;;494368;241;1054;-47
2021/10/12 09:46:05;;;;;;;;;;;21.80;50.90;;;;;;494477;240;1148;-47
2021/10/12 09:48:06;;;;;;;;;;;21.80;50.90;;;;;;494487;241;1090;-46
2021/10/12 09:50:08;;;;;;;;;;;21.80;50.90;;;;;;494293;241;1241;-47
2021/10/12 09:52:10;;;;;;;;;;;21.80;50.90;;;;;;494612;240;1322;-46
2021/10/12 09:54:10;;;;;;;;;;;21.80;50.90;;;;;;494258;240;1375;-47
2021/10/12 09:56:12;;;;;;;;;;;21.80;50.80;;;;;;494536;241;1126;-47
2021/10/12 09:58:13;;;;;;;;;;;21.90;50.80;;;;;;494522;241;2197;-47
2021/10/12 10:00:14;;;;;;;;;;;21.80;50.90;;;;;;494329;240;1183;-47
2021/10/12 10:02:16;;;;;;;;;;;21.90;50.90;;;;;;494632;240;1272;-47
2021/10/12 10:04:18;;;;;;;;;;;21.90;50.80;;;;;;494305;240;1101;-46
2021/10/12 10:06:21;;;;;;;;;;;21.80;50.80;;;;;;494090;240;1350;-47
2021/10/12 10:08:21;;;;;;;;;;;21.80;50.80;;;;;;494409;241;1985;-47
2021/10/12 10:10:22;;;;;;;;;;;21.80;50.80;;;;;;494170;241;1157;-47
2021/10/12 10:12:23;;;;;;;;;;;21.80;50.80;;;;;;494096;240;1351;-47
2021/10/12 10:14:25;;;;;;;;;;;21.80;50.90;;;;;;494386;240;1118;-47
2021/10/12 10:16:26;;;;;;;;;;;21.80;50.80;;;;;;494479;240;1272;-47
2021/10/12 10:18:28;;;;;;;;;;;21.80;50.90;;;;;;494686;241;2182;-47
2021/10/12 10:20:29;;;;;;;;;;;21.80;50.80;;;;;;494984;240;1036;-47
2021/10/12 10:22:30;;;;;;;;;;;21.80;50.80;;;;;;494432;240;1229;-47
2021/10/12 10:24:33;;;;;;;;;;;21.80;50.90;;;;;;494313;241;1086;-47
2021/10/12 10:26:33;;;;;;;;;;;21.80;50.90;;;;;;494235;240;2187;-47
2021/10/12 10:28:34;;;;;;;;;;;21.80;50.80;;;;;;494945;240;1396;-47
2021/10/12 10:30:35;;;;;;;;;;;21.80;50.80;;;;;;494267;240;1323;-47
2021/10/12 10:32:37;;;;;;;;;;;21.80;50.80;;;;;;494526;240;1201;-47
2021/10/12 10:34:38;;;;;;;;;;;21.80;50.90;;;;;;494415;241;1142;-47
2021/10/12 10:36:39;;;;;;;;;;;21.80;50.80;;;;;;494511;237;1380;-47
2021/10/12 10:38:43;;;;;;;;;;;21.80;50.80;;;;;;494223;241;2198;-47
2021/10/12 10:40:44;;;;;;;;;;;21.90;50.80;;;;;;494375;240;1322;-47
2021/10/12 10:42:45;;;;;;;;;;;21.80;50.80;;;;;;494261;240;1205;-47
2021/10/12 10:44:47;;;;;;;;;;;21.80;50.80;;;;;;494526;240;1053;-46
2021/10/12 10:46:48;;;;;;;;;;;21.80;50.80;;;;;;494504;240;1457;-46
2021/10/12 10:48:49;;;;;;;;;;;21.80;50.70;;;;;;494420;240;1060;-47
2021/10/12 10:50:52;;;;;;;;;;;21.90;50.80;;;;;;494314;240;1250;-47
2021/10/12 10:52:52;;;;;;;;;;;21.80;50.70;;;;;;494191;240;2261;-47
2021/10/12 10:54:53;;;;;;;;;;;21.90;50.80;;;;;;494258;241;1111;-46
2021/10/12 10:56:54;;;;;;;;;;;21.90;50.80;;;;;;494269;240;1219;-47
2021/10/12 10:58:56;;;;;;;;;;;21.80;50.70;;;;;;494255;240;2191;-47
2021/10/12 11:00:57;;;;;;;;;;;21.80;50.70;;;;;;494191;240;1308;-47
2021/10/12 11:02:58;;;;;;;;;;;21.80;50.80;;;;;;494072;240;1158;-46
2021/10/12 11:05:00;;;;;;;;;;;21.80;50.80;;;;;;494139;241;1231;-46
2021/10/12 11:07:01;;;;;;;;;;;21.90;50.80;;;;;;494098;240;1262;-47
2021/10/12 11:09:03;;;;;;;;;;;21.80;50.80;;;;;;494278;241;1185;-47
2021/10/12 11:11:04;;;;;;;;;;;21.80;50.80;;;;;;494366;240;1173;-47
2021/10/12 11:13:05;;;;;;;;;;;21.80;50.80;;;;;;494360;241;1275;-47
2021/10/12 11:15:07;;;;;;;;;;;21.80;50.80;;;;;;494394;240;1079;-46
2021/10/12 11:17:08;;;;;;;;;;;21.80;50.80;;;;;;494435;240;1223;-47
2021/10/12 11:19:09;;;;;;;;;;;21.90;50.70;;;;;;494255;240;2178;-47
2021/10/12 11:21:11;;;;;;;;;;;21.80;50.80;;;;;;494614;241;1168;-47
2021/10/12 11:23:12;;;;;;;;;;;21.90;50.70;;;;;;494719;240;1283;-46
2021/10/12 11:25:13;;;;;;;;;;;21.80;50.70;;;;;;494688;241;850;-47
2021/10/12 11:27:15;;;;;;;;;;;21.90;50.70;;;;;;494985;240;1072;-47
2021/10/12 11:29:16;;;;;;;;;;;21.80;50.70;;;;;;494578;241;1093;-47
2021/10/12 11:31:17;;;;;;;;;;;21.90;50.80;;;;;;494695;240;1324;-47
2021/10/12 11:33:18;;;;;;;;;;;21.80;50.80;;;;;;495211;240;1028;-47
2021/10/12 11:35:20;;;;;;;;;;;21.80;50.80;;;;;;494183;241;1129;-47
2021/10/12 11:37:21;;;;;;;;;;;21.80;50.80;;;;;;494416;240;1168;-47
2021/10/12 11:39:22;;;;;;;;;;;21.80;50.70;;;;;;495288;240;2190;-47
2021/10/12 11:41:24;;;;;;;;;;;21.80;50.70;;;;;;494281;241;1597;-47
2021/10/12 11:43:25;;;;;;;;;;;21.80;50.80;;;;;;494447;240;1065;-46
2021/10/12 11:45:26;;;;;;;;;;;21.80;50.80;;;;;;494013;241;1066;-47
2021/10/12 11:47:28;;;;;;;;;;;21.80;50.90;;;;;;494535;240;1227;-47
2021/10/12 11:49:29;;;;;;;;;;;21.80;50.80;;;;;;494659;240;1197;-47
2021/10/12 11:51:32;;;;;;;;;;;21.80;50.80;;;;;;495058;240;1138;-47
2021/10/12 11:53:32;;;;;;;;;;;21.90;50.80;;;;;;494411;240;1976;-47
2021/10/12 11:55:33;;;;;;;;;;;21.90;50.80;;;;;;494654;241;2279;-47
2021/10/12 11:57:34;;;;;;;;;;;21.80;50.70;;;;;;494755;240;1028;-46